sensor_id;sensor_type;location;lat;lon;timestamp;P1;durP1;ratioP1;P2;durP2;ratioP2
10465;SDS011;5280;42.600;23.556;2022-11-15T00:01:07;24.63;;;17.80;;
10465;SDS011;5280;42.600;23.556;2022-11-15T00:03:35;23.83;;;17.17;;
10465;SDS011;5280;42.600;23.556;2022-11-15T00:06:03;27.87;;;19.17;;
10465;SDS011;5280;42.600;23.556;2022-11-15T00:08:31;27.80;;;17.80;;
10465;SDS011;5280;42.600;23.556;2022-11-15T00:10:59;26.07;;;17.77;;
10465;SDS011;5280;42.600;23.556;2022-11-15T00:13:27;24.87;;;17.37;;
10465;SDS011;5280;42.600;23.556;2022-11-15T00:15:56;21.60;;;15.57;;
10465;SDS011;5280;42.600;23.556;2022-11-15T00:18:23;21.30;;;16.40;;
10465;SDS011;5280;42.600;23.556;2022-11-15T00:20:50;20.37;;;13.90;;
10465;SDS011;5280;42.600;23.556;2022-11-15T00:23:18;19.17;;;14.83;;
10465;SDS011;5280;42.600;23.556;2022-11-15T00:25:45;20.20;;;15.50;;
10465;SDS011;5280;42.600;23.556;2022-11-15T00:28:12;21.30;;;15.40;;
10465;SDS011;5280;42.600;23.556;2022-11-15T00:30:41;19.67;;;15.07;;
10465;SDS011;5280;42.600;23.556;2022-11-15T00:33:08;22.73;;;16.13;;
10465;SDS011;5280;42.600;23.556;2022-11-15T00:35:35;25.33;;;17.00;;
10465;SDS011;5280;42.600;23.556;2022-11-15T00:38:02;21.40;;;15.90;;
10465;SDS011;5280;42.600;23.556;2022-11-15T00:40:30;21.67;;;15.97;;
10465;SDS011;5280;42.600;23.556;2022-11-15T00:42:57;22.30;;;16.20;;
10465;SDS011;5280;42.600;23.556;2022-11-15T00:45:24;22.97;;;17.13;;
10465;SDS011;5280;42.600;23.556;2022-11-15T00:47:54;21.80;;;16.70;;
10465;SDS011;5280;42.600;23.556;2022-11-15T00:50:21;27.70;;;18.30;;
10465;SDS011;5280;42.600;23.556;2022-11-15T00:52:48;26.73;;;19.37;;
10465;SDS011;5280;42.600;23.556;2022-11-15T00:55:15;27.03;;;18.93;;
10465;SDS011;5280;42.600;23.556;2022-11-15T00:57:44;28.83;;;19.53;;
10465;SDS011;5280;42.600;23.556;2022-11-15T01:00:12;30.47;;;20.67;;
10465;SDS011;5280;42.600;23.556;2022-11-15T01:02:39;32.30;;;21.80;;
10465;SDS011;5280;42.600;23.556;2022-11-15T01:05:06;29.97;;;21.03;;
10465;SDS011;5280;42.600;23.556;2022-11-15T01:07:34;29.70;;;20.93;;
10465;SDS011;5280;42.600;23.556;2022-11-15T01:10:01;26.47;;;20.67;;
10465;SDS011;5280;42.600;23.556;2022-11-15T01:12:29;27.07;;;18.67;;
10465;SDS011;5280;42.600;23.556;2022-11-15T01:14:57;28.10;;;19.30;;
10465;SDS011;5280;42.600;23.556;2022-11-15T01:17:24;29.60;;;19.60;;
10465;SDS011;5280;42.600;23.556;2022-11-15T01:19:51;27.83;;;19.67;;
10465;SDS011;5280;42.600;23.556;2022-11-15T01:22:17;29.27;;;19.57;;
10465;SDS011;5280;42.600;23.556;2022-11-15T01:24:44;26.23;;;18.23;;
10465;SDS011;5280;42.600;23.556;2022-11-15T01:27:11;23.80;;;16.40;;
10465;SDS011;5280;42.600;23.556;2022-11-15T01:29:38;23.37;;;16.27;;
10465;SDS011;5280;42.600;23.556;2022-11-15T01:32:06;21.23;;;15.53;;
10465;SDS011;5280;42.600;23.556;2022-11-15T01:34:33;22.23;;;16.27;;
10465;SDS011;5280;42.600;23.556;2022-11-15T01:37:00;24.13;;;16.53;;
10465;SDS011;5280;42.600;23.556;2022-11-15T01:39:27;23.37;;;16.50;;
10465;SDS011;5280;42.600;23.556;2022-11-15T01:41:54;22.80;;;15.73;;
10465;SDS011;5280;42.600;23.556;2022-11-15T01:47:22;23.63;;;17.03;;
10465;SDS011;5280;42.600;23.556;2022-11-15T01:49:53;22.43;;;16.70;;
10465;SDS011;5280;42.600;23.556;2022-11-15T01:52:27;22.70;;;16.70;;
10465;SDS011;5280;42.600;23.556;2022-11-15T01:54:59;24.57;;;16.53;;
10465;SDS011;5280;42.600;23.556;2022-11-15T01:57:31;22.97;;;17.57;;
10465;SDS011;5280;42.600;23.556;2022-11-15T01:59:58;25.13;;;17.43;;
10465;SDS011;5280;42.600;23.556;2022-11-15T02:02:28;26.90;;;17.70;;
10465;SDS011;5280;42.600;23.556;2022-11-15T02:04:55;23.30;;;17.30;;
10465;SDS011;5280;42.600;23.556;2022-11-15T02:07:22;25.47;;;17.60;;
10465;SDS011;5280;42.600;23.556;2022-11-15T02:09:49;26.83;;;18.50;;
10465;SDS011;5280;42.600;23.556;2022-11-15T02:12:19;26.60;;;18.50;;
10465;SDS011;5280;42.600;23.556;2022-11-15T02:14:49;25.37;;;17.40;;
10465;SDS011;5280;42.600;23.556;2022-11-15T02:17:28;24.03;;;16.60;;
10465;SDS011;5280;42.600;23.556;2022-11-15T02:20:13;22.40;;;15.73;;
10465;SDS011;5280;42.600;23.556;2022-11-15T02:23:33;24.87;;;14.87;;
10465;SDS011;5280;42.600;23.556;2022-11-15T02:29:40;20.77;;;15.07;;
10465;SDS011;5280;42.600;23.556;2022-11-15T02:32:27;21.80;;;15.93;;
10465;SDS011;5280;42.600;23.556;2022-11-15T02:35:01;21.67;;;15.63;;
10465;SDS011;5280;42.600;23.556;2022-11-15T02:37:36;24.57;;;16.67;;
10465;SDS011;5280;42.600;23.556;2022-11-15T02:40:11;22.77;;;16.03;;
10465;SDS011;5280;42.600;23.556;2022-11-15T02:42:44;22.90;;;17.03;;
10465;SDS011;5280;42.600;23.556;2022-11-15T02:45:35;24.67;;;16.83;;
10465;SDS011;5280;42.600;23.556;2022-11-15T02:48:06;25.50;;;17.40;;
10465;SDS011;5280;42.600;23.556;2022-11-15T02:50:35;25.77;;;17.53;;
10465;SDS011;5280;42.600;23.556;2022-11-15T02:53:02;26.23;;;18.17;;
10465;SDS011;5280;42.600;23.556;2022-11-15T02:55:30;28.23;;;18.33;;
10465;SDS011;5280;42.600;23.556;2022-11-15T02:58:02;29.13;;;20.37;;
10465;SDS011;5280;42.600;23.556;2022-11-15T03:00:46;26.30;;;18.67;;
10465;SDS011;5280;42.600;23.556;2022-11-15T03:03:33;25.53;;;17.20;;
10465;SDS011;5280;42.600;23.556;2022-11-15T03:06:15;24.63;;;17.47;;
10465;SDS011;5280;42.600;23.556;2022-11-15T03:08:53;25.70;;;17.73;;
10465;SDS011;5280;42.600;23.556;2022-11-15T03:11:28;24.27;;;17.00;;
10465;SDS011;5280;42.600;23.556;2022-11-15T03:14:00;26.63;;;18.10;;
10465;SDS011;5280;42.600;23.556;2022-11-15T03:16:36;26.90;;;18.00;;
10465;SDS011;5280;42.600;23.556;2022-11-15T03:19:06;25.77;;;17.17;;
10465;SDS011;5280;42.600;23.556;2022-11-15T03:21:38;23.10;;;16.43;;
10465;SDS011;5280;42.600;23.556;2022-11-15T03:24:07;22.70;;;15.90;;
10465;SDS011;5280;42.600;23.556;2022-11-15T03:26:35;21.73;;;14.40;;
10465;SDS011;5280;42.600;23.556;2022-11-15T03:29:06;20.60;;;14.90;;
10465;SDS011;5280;42.600;23.556;2022-11-15T03:31:38;24.60;;;16.73;;
10465;SDS011;5280;42.600;23.556;2022-11-15T03:34:15;28.53;;;17.30;;
10465;SDS011;5280;42.600;23.556;2022-11-15T03:36:49;28.73;;;17.50;;
10465;SDS011;5280;42.600;23.556;2022-11-15T03:39:17;31.70;;;19.37;;
10465;SDS011;5280;42.600;23.556;2022-11-15T03:41:47;33.97;;;20.97;;
10465;SDS011;5280;42.600;23.556;2022-11-15T03:44:19;36.90;;;23.30;;
10465;SDS011;5280;42.600;23.556;2022-11-15T03:46:58;37.43;;;23.33;;
10465;SDS011;5280;42.600;23.556;2022-11-15T03:49:32;41.47;;;23.40;;
10465;SDS011;5280;42.600;23.556;2022-11-15T03:52:00;32.47;;;21.90;;
10465;SDS011;5280;42.600;23.556;2022-11-15T03:54:29;37.73;;;22.93;;
10465;SDS011;5280;42.600;23.556;2022-11-15T03:56:56;42.13;;;23.97;;
10465;SDS011;5280;42.600;23.556;2022-11-15T03:59:23;41.23;;;25.03;;
10465;SDS011;5280;42.600;23.556;2022-11-15T04:01:50;36.97;;;23.77;;
10465;SDS011;5280;42.600;23.556;2022-11-15T04:04:17;36.70;;;23.30;;
10465;SDS011;5280;42.600;23.556;2022-11-15T04:06:45;37.87;;;21.23;;
10465;SDS011;5280;42.600;23.556;2022-11-15T04:09:11;29.00;;;20.63;;
10465;SDS011;5280;42.600;23.556;2022-11-15T04:11:38;26.80;;;18.70;;
10465;SDS011;5280;42.600;23.556;2022-11-15T04:14:05;22.50;;;16.30;;
10465;SDS011;5280;42.600;23.556;2022-11-15T04:16:32;25.67;;;17.20;;
10465;SDS011;5280;42.600;23.556;2022-11-15T04:18:58;23.40;;;15.57;;
10465;SDS011;5280;42.600;23.556;2022-11-15T04:21:44;19.30;;;14.00;;
10465;SDS011;5280;42.600;23.556;2022-11-15T04:24:29;18.63;;;13.90;;
10465;SDS011;5280;42.600;23.556;2022-11-15T04:26:56;21.93;;;14.57;;
10465;SDS011;5280;42.600;23.556;2022-11-15T04:29:22;18.80;;;13.33;;
10465;SDS011;5280;42.600;23.556;2022-11-15T04:32:01;19.03;;;14.20;;
10465;SDS011;5280;42.600;23.556;2022-11-15T04:34:28;18.87;;;12.67;;
10465;SDS011;5280;42.600;23.556;2022-11-15T04:36:57;18.10;;;12.73;;
10465;SDS011;5280;42.600;23.556;2022-11-15T04:39:39;21.27;;;13.17;;
10465;SDS011;5280;42.600;23.556;2022-11-15T04:42:06;16.60;;;10.97;;
10465;SDS011;5280;42.600;23.556;2022-11-15T04:44:33;17.50;;;12.07;;
10465;SDS011;5280;42.600;23.556;2022-11-15T04:47:00;17.03;;;12.47;;
10465;SDS011;5280;42.600;23.556;2022-11-15T04:49:27;17.63;;;13.33;;
10465;SDS011;5280;42.600;23.556;2022-11-15T04:51:54;20.07;;;13.47;;
10465;SDS011;5280;42.600;23.556;2022-11-15T04:54:22;17.43;;;12.50;;
10465;SDS011;5280;42.600;23.556;2022-11-15T04:56:49;20.27;;;13.73;;
10465;SDS011;5280;42.600;23.556;2022-11-15T04:59:16;18.23;;;13.83;;
10465;SDS011;5280;42.600;23.556;2022-11-15T05:01:43;21.10;;;13.87;;
10465;SDS011;5280;42.600;23.556;2022-11-15T05:04:10;18.87;;;12.47;;
10465;SDS011;5280;42.600;23.556;2022-11-15T05:06:45;42.30;;;17.73;;
10465;SDS011;5280;42.600;23.556;2022-11-15T05:09:13;22.07;;;15.77;;
10465;SDS011;5280;42.600;23.556;2022-11-15T05:11:41;169.07;;;22.13;;
10465;SDS011;5280;42.600;23.556;2022-11-15T05:14:08;366.97;;;33.80;;
10465;SDS011;5280;42.600;23.556;2022-11-15T05:16:35;24.83;;;19.37;;
10465;SDS011;5280;42.600;23.556;2022-11-15T05:19:03;95.77;;;22.57;;
10465;SDS011;5280;42.600;23.556;2022-11-15T05:21:31;226.97;;;29.33;;
10465;SDS011;5280;42.600;23.556;2022-11-15T05:23:58;42.70;;;20.23;;
10465;SDS011;5280;42.600;23.556;2022-11-15T05:26:25;25.50;;;19.77;;
10465;SDS011;5280;42.600;23.556;2022-11-15T05:28:54;105.87;;;21.87;;
10465;SDS011;5280;42.600;23.556;2022-11-15T05:31:22;172.23;;;25.57;;
10465;SDS011;5280;42.600;23.556;2022-11-15T05:33:50;88.83;;;19.67;;
10465;SDS011;5280;42.600;23.556;2022-11-15T05:36:19;87.10;;;19.43;;
10465;SDS011;5280;42.600;23.556;2022-11-15T05:38:51;127.23;;;19.87;;
10465;SDS011;5280;42.600;23.556;2022-11-15T05:41:18;40.87;;;17.23;;
10465;SDS011;5280;42.600;23.556;2022-11-15T05:43:47;70.97;;;17.33;;
10465;SDS011;5280;42.600;23.556;2022-11-15T05:46:17;20.63;;;14.80;;
10465;SDS011;5280;42.600;23.556;2022-11-15T05:48:45;147.87;;;21.93;;
10465;SDS011;5280;42.600;23.556;2022-11-15T05:51:15;81.67;;;18.00;;
10465;SDS011;5280;42.600;23.556;2022-11-15T05:53:43;52.20;;;18.93;;
10465;SDS011;5280;42.600;23.556;2022-11-15T05:56:11;30.53;;;19.63;;
10465;SDS011;5280;42.600;23.556;2022-11-15T05:58:39;60.77;;;19.43;;
10465;SDS011;5280;42.600;23.556;2022-11-15T06:01:06;131.10;;;22.83;;
10465;SDS011;5280;42.600;23.556;2022-11-15T06:03:34;168.13;;;25.07;;
10465;SDS011;5280;42.600;23.556;2022-11-15T06:06:01;97.23;;;21.20;;
10465;SDS011;5280;42.600;23.556;2022-11-15T06:08:27;178.33;;;28.10;;
10465;SDS011;5280;42.600;23.556;2022-11-15T06:10:54;231.43;;;29.87;;
10465;SDS011;5280;42.600;23.556;2022-11-15T06:13:21;218.43;;;25.13;;
10465;SDS011;5280;42.600;23.556;2022-11-15T06:15:50;196.13;;;25.90;;
10465;SDS011;5280;42.600;23.556;2022-11-15T06:18:17;199.90;;;27.17;;
10465;SDS011;5280;42.600;23.556;2022-11-15T06:20:45;32.03;;;19.27;;
10465;SDS011;5280;42.600;23.556;2022-11-15T06:23:12;70.60;;;19.93;;
10465;SDS011;5280;42.600;23.556;2022-11-15T06:25:39;111.90;;;21.40;;
10465;SDS011;5280;42.600;23.556;2022-11-15T06:28:06;106.77;;;19.83;;
10465;SDS011;5280;42.600;23.556;2022-11-15T06:30:32;83.57;;;19.90;;
10465;SDS011;5280;42.600;23.556;2022-11-15T06:32:59;86.83;;;17.83;;
10465;SDS011;5280;42.600;23.556;2022-11-15T06:35:27;25.93;;;18.27;;
10465;SDS011;5280;42.600;23.556;2022-11-15T06:37:56;102.03;;;19.20;;
10465;SDS011;5280;42.600;23.556;2022-11-15T06:40:29;151.00;;;22.37;;
10465;SDS011;5280;42.600;23.556;2022-11-15T06:42:57;105.37;;;20.93;;
10465;SDS011;5280;42.600;23.556;2022-11-15T06:45:24;115.57;;;19.23;;
10465;SDS011;5280;42.600;23.556;2022-11-15T06:47:51;64.00;;;23.17;;
10465;SDS011;5280;42.600;23.556;2022-11-15T06:50:18;90.47;;;20.80;;
10465;SDS011;5280;42.600;23.556;2022-11-15T06:52:45;43.37;;;18.17;;
10465;SDS011;5280;42.600;23.556;2022-11-15T06:55:13;77.10;;;16.90;;
10465;SDS011;5280;42.600;23.556;2022-11-15T06:57:45;128.27;;;22.37;;
10465;SDS011;5280;42.600;23.556;2022-11-15T07:00:13;68.33;;;18.10;;
10465;SDS011;5280;42.600;23.556;2022-11-15T07:02:41;70.77;;;17.53;;
10465;SDS011;5280;42.600;23.556;2022-11-15T07:05:08;122.93;;;21.30;;
10465;SDS011;5280;42.600;23.556;2022-11-15T07:07:35;31.77;;;16.73;;
10465;SDS011;5280;42.600;23.556;2022-11-15T07:10:02;24.90;;;16.17;;
10465;SDS011;5280;42.600;23.556;2022-11-15T07:12:31;117.47;;;20.23;;
10465;SDS011;5280;42.600;23.556;2022-11-15T07:14:59;132.50;;;21.87;;
10465;SDS011;5280;42.600;23.556;2022-11-15T07:17:25;169.53;;;22.70;;
10465;SDS011;5280;42.600;23.556;2022-11-15T07:19:52;446.50;;;32.77;;
10465;SDS011;5280;42.600;23.556;2022-11-15T07:22:19;60.37;;;20.03;;
10465;SDS011;5280;42.600;23.556;2022-11-15T07:24:45;102.40;;;19.13;;
10465;SDS011;5280;42.600;23.556;2022-11-15T07:27:12;214.50;;;22.50;;
10465;SDS011;5280;42.600;23.556;2022-11-15T07:29:40;26.83;;;16.47;;
10465;SDS011;5280;42.600;23.556;2022-11-15T07:32:07;26.60;;;15.60;;
10465;SDS011;5280;42.600;23.556;2022-11-15T07:34:35;184.33;;;22.63;;
10465;SDS011;5280;42.600;23.556;2022-11-15T07:37:02;59.90;;;18.20;;
10465;SDS011;5280;42.600;23.556;2022-11-15T07:39:29;76.50;;;17.90;;
10465;SDS011;5280;42.600;23.556;2022-11-15T07:41:56;85.97;;;18.80;;
10465;SDS011;5280;42.600;23.556;2022-11-15T07:44:36;82.73;;;18.33;;
10465;SDS011;5280;42.600;23.556;2022-11-15T07:47:05;68.97;;;18.83;;
10465;SDS011;5280;42.600;23.556;2022-11-15T07:49:31;66.43;;;19.97;;
10465;SDS011;5280;42.600;23.556;2022-11-15T07:51:58;121.93;;;21.23;;
10465;SDS011;5280;42.600;23.556;2022-11-15T07:54:25;73.13;;;19.83;;
10465;SDS011;5280;42.600;23.556;2022-11-15T07:56:52;48.20;;;18.63;;
10465;SDS011;5280;42.600;23.556;2022-11-15T07:59:18;241.30;;;26.80;;
10465;SDS011;5280;42.600;23.556;2022-11-15T08:01:46;67.47;;;22.50;;
10465;SDS011;5280;42.600;23.556;2022-11-15T08:04:14;148.80;;;26.23;;
10465;SDS011;5280;42.600;23.556;2022-11-15T08:06:41;313.20;;;29.07;;
10465;SDS011;5280;42.600;23.556;2022-11-15T08:09:11;115.00;;;25.37;;
10465;SDS011;5280;42.600;23.556;2022-11-15T08:11:37;88.07;;;22.83;;
10465;SDS011;5280;42.600;23.556;2022-11-15T08:14:04;137.33;;;25.47;;
10465;SDS011;5280;42.600;23.556;2022-11-15T08:16:31;59.57;;;21.30;;
10465;SDS011;5280;42.600;23.556;2022-11-15T08:18:58;406.53;;;32.97;;
10465;SDS011;5280;42.600;23.556;2022-11-15T08:21:26;59.13;;;25.07;;
10465;SDS011;5280;42.600;23.556;2022-11-15T08:23:53;172.47;;;28.23;;
10465;SDS011;5280;42.600;23.556;2022-11-15T08:26:20;117.27;;;21.47;;
10465;SDS011;5280;42.600;23.556;2022-11-15T08:28:47;247.43;;;29.23;;
10465;SDS011;5280;42.600;23.556;2022-11-15T08:31:17;84.80;;;24.40;;
10465;SDS011;5280;42.600;23.556;2022-11-15T08:33:44;156.40;;;25.40;;
10465;SDS011;5280;42.600;23.556;2022-11-15T08:36:12;165.27;;;26.20;;
10465;SDS011;5280;42.600;23.556;2022-11-15T08:38:42;367.93;;;31.70;;
10465;SDS011;5280;42.600;23.556;2022-11-15T08:41:10;596.07;;;41.23;;
10465;SDS011;5280;42.600;23.556;2022-11-15T08:43:40;38.07;;;20.80;;
10465;SDS011;5280;42.600;23.556;2022-11-15T08:46:07;316.90;;;32.03;;
10465;SDS011;5280;42.600;23.556;2022-11-15T08:48:36;117.33;;;26.10;;
10465;SDS011;5280;42.600;23.556;2022-11-15T08:51:03;176.73;;;29.27;;
10465;SDS011;5280;42.600;23.556;2022-11-15T08:53:31;393.50;;;37.17;;
10465;SDS011;5280;42.600;23.556;2022-11-15T08:55:59;383.43;;;35.43;;
10465;SDS011;5280;42.600;23.556;2022-11-15T08:58:25;267.20;;;30.90;;
10465;SDS011;5280;42.600;23.556;2022-11-15T09:00:52;345.47;;;30.97;;
10465;SDS011;5280;42.600;23.556;2022-11-15T09:03:19;55.80;;;20.97;;
10465;SDS011;5280;42.600;23.556;2022-11-15T09:05:46;151.70;;;24.00;;
10465;SDS011;5280;42.600;23.556;2022-11-15T09:08:13;67.20;;;24.50;;
10465;SDS011;5280;42.600;23.556;2022-11-15T09:10:39;35.67;;;23.07;;
10465;SDS011;5280;42.600;23.556;2022-11-15T09:13:07;223.90;;;31.27;;
10465;SDS011;5280;42.600;23.556;2022-11-15T09:15:34;55.53;;;23.87;;
10465;SDS011;5280;42.600;23.556;2022-11-15T09:18:01;92.30;;;24.77;;
10465;SDS011;5280;42.600;23.556;2022-11-15T09:20:28;118.77;;;27.37;;
10465;SDS011;5280;42.600;23.556;2022-11-15T09:22:58;110.43;;;25.87;;
10465;SDS011;5280;42.600;23.556;2022-11-15T09:25:26;143.63;;;26.83;;
10465;SDS011;5280;42.600;23.556;2022-11-15T09:27:52;39.50;;;24.20;;
10465;SDS011;5280;42.600;23.556;2022-11-15T09:30:21;50.50;;;23.83;;
10465;SDS011;5280;42.600;23.556;2022-11-15T09:32:48;41.40;;;22.87;;
10465;SDS011;5280;42.600;23.556;2022-11-15T09:35:14;194.30;;;26.50;;
10465;SDS011;5280;42.600;23.556;2022-11-15T09:37:41;124.27;;;28.37;;
10465;SDS011;5280;42.600;23.556;2022-11-15T09:40:08;67.20;;;24.73;;
10465;SDS011;5280;42.600;23.556;2022-11-15T09:45:31;387.07;;;32.40;;
10465;SDS011;5280;42.600;23.556;2022-11-15T09:50:57;41.67;;;23.90;;
10465;SDS011;5280;42.600;23.556;2022-11-15T09:53:29;79.90;;;25.20;;
10465;SDS011;5280;42.600;23.556;2022-11-15T09:56:00;290.77;;;34.67;;
10465;SDS011;5280;42.600;23.556;2022-11-15T09:58:38;61.20;;;24.87;;
10465;SDS011;5280;42.600;23.556;2022-11-15T10:01:16;164.77;;;26.53;;
10465;SDS011;5280;42.600;23.556;2022-11-15T10:03:49;50.80;;;23.07;;
10465;SDS011;5280;42.600;23.556;2022-11-15T10:06:24;90.13;;;25.13;;
10465;SDS011;5280;42.600;23.556;2022-11-15T10:08:55;185.70;;;27.33;;
10465;SDS011;5280;42.600;23.556;2022-11-15T10:11:27;81.27;;;23.23;;
10465;SDS011;5280;42.600;23.556;2022-11-15T10:13:56;51.10;;;25.47;;
10465;SDS011;5280;42.600;23.556;2022-11-15T10:16:33;130.23;;;28.20;;
10465;SDS011;5280;42.600;23.556;2022-11-15T10:19:19;91.47;;;26.87;;
10465;SDS011;5280;42.600;23.556;2022-11-15T10:21:57;79.43;;;28.47;;
10465;SDS011;5280;42.600;23.556;2022-11-15T10:24:32;135.67;;;30.73;;
10465;SDS011;5280;42.600;23.556;2022-11-15T10:27:03;65.93;;;29.33;;
10465;SDS011;5280;42.600;23.556;2022-11-15T10:29:36;50.20;;;29.10;;
10465;SDS011;5280;42.600;23.556;2022-11-15T10:32:09;51.03;;;28.97;;
10465;SDS011;5280;42.600;23.556;2022-11-15T10:34:37;53.53;;;30.20;;
10465;SDS011;5280;42.600;23.556;2022-11-15T10:37:04;69.90;;;32.70;;
10465;SDS011;5280;42.600;23.556;2022-11-15T10:39:31;55.53;;;31.03;;
10465;SDS011;5280;42.600;23.556;2022-11-15T10:42:00;104.73;;;31.00;;
10465;SDS011;5280;42.600;23.556;2022-11-15T10:44:42;118.80;;;31.87;;
10465;SDS011;5280;42.600;23.556;2022-11-15T10:50:04;52.33;;;30.27;;
10465;SDS011;5280;42.600;23.556;2022-11-15T10:52:34;80.07;;;31.97;;
10465;SDS011;5280;42.600;23.556;2022-11-15T10:55:19;149.23;;;33.77;;
10465;SDS011;5280;42.600;23.556;2022-11-15T10:57:51;55.30;;;31.03;;
10465;SDS011;5280;42.600;23.556;2022-11-15T11:00:32;56.97;;;30.23;;
10465;SDS011;5280;42.600;23.556;2022-11-15T11:03:03;71.57;;;32.93;;
10465;SDS011;5280;42.600;23.556;2022-11-15T11:05:33;65.33;;;32.13;;
10465;SDS011;5280;42.600;23.556;2022-11-15T11:08:02;53.00;;;30.50;;
10465;SDS011;5280;42.600;23.556;2022-11-15T11:10:31;51.70;;;30.97;;
10465;SDS011;5280;42.600;23.556;2022-11-15T11:13:12;56.13;;;30.93;;
10465;SDS011;5280;42.600;23.556;2022-11-15T11:15:40;53.50;;;30.07;;
10465;SDS011;5280;42.600;23.556;2022-11-15T11:18:14;52.67;;;31.13;;
10465;SDS011;5280;42.600;23.556;2022-11-15T11:20:49;50.93;;;30.70;;
10465;SDS011;5280;42.600;23.556;2022-11-15T11:23:22;51.67;;;30.20;;
10465;SDS011;5280;42.600;23.556;2022-11-15T11:26:01;56.83;;;33.53;;
10465;SDS011;5280;42.600;23.556;2022-11-15T11:28:39;49.67;;;31.73;;
10465;SDS011;5280;42.600;23.556;2022-11-15T11:31:20;53.17;;;32.03;;
10465;SDS011;5280;42.600;23.556;2022-11-15T11:33:58;50.27;;;31.97;;
10465;SDS011;5280;42.600;23.556;2022-11-15T11:36:34;52.73;;;31.60;;
10465;SDS011;5280;42.600;23.556;2022-11-15T11:39:11;54.37;;;32.33;;
10465;SDS011;5280;42.600;23.556;2022-11-15T11:41:53;53.53;;;32.53;;
10465;SDS011;5280;42.600;23.556;2022-11-15T11:47:18;49.07;;;30.80;;
10465;SDS011;5280;42.600;23.556;2022-11-15T11:49:51;50.70;;;31.17;;
10465;SDS011;5280;42.600;23.556;2022-11-15T11:52:21;49.33;;;30.83;;
10465;SDS011;5280;42.600;23.556;2022-11-15T11:54:55;48.87;;;31.90;;
10465;SDS011;5280;42.600;23.556;2022-11-15T11:57:30;51.30;;;31.33;;
10465;SDS011;5280;42.600;23.556;2022-11-15T12:00:04;49.60;;;30.83;;
10465;SDS011;5280;42.600;23.556;2022-11-15T12:02:43;55.03;;;32.07;;
10465;SDS011;5280;42.600;23.556;2022-11-15T12:05:16;52.10;;;30.93;;
10465;SDS011;5280;42.600;23.556;2022-11-15T12:07:49;48.53;;;31.63;;
10465;SDS011;5280;42.600;23.556;2022-11-15T12:10:20;49.87;;;31.60;;
10465;SDS011;5280;42.600;23.556;2022-11-15T12:12:52;48.73;;;31.13;;
10465;SDS011;5280;42.600;23.556;2022-11-15T12:15:26;47.77;;;31.47;;
10465;SDS011;5280;42.600;23.556;2022-11-15T12:17:56;49.97;;;31.87;;
10465;SDS011;5280;42.600;23.556;2022-11-15T12:20:26;48.57;;;32.20;;
10465;SDS011;5280;42.600;23.556;2022-11-15T12:22:57;47.73;;;30.30;;
10465;SDS011;5280;42.600;23.556;2022-11-15T12:25:28;44.67;;;30.27;;
10465;SDS011;5280;42.600;23.556;2022-11-15T12:27:59;46.37;;;30.27;;
10465;SDS011;5280;42.600;23.556;2022-11-15T12:30:39;47.20;;;30.47;;
10465;SDS011;5280;42.600;23.556;2022-11-15T12:35:58;42.60;;;29.00;;
10465;SDS011;5280;42.600;23.556;2022-11-15T12:41:18;48.60;;;30.20;;
10465;SDS011;5280;42.600;23.556;2022-11-15T12:43:46;42.03;;;28.30;;
10465;SDS011;5280;42.600;23.556;2022-11-15T12:46:18;39.73;;;27.47;;
10465;SDS011;5280;42.600;23.556;2022-11-15T12:48:54;40.47;;;27.30;;
10465;SDS011;5280;42.600;23.556;2022-11-15T12:57:41;40.33;;;27.03;;
10465;SDS011;5280;42.600;23.556;2022-11-15T13:03:16;40.47;;;26.57;;
10465;SDS011;5280;42.600;23.556;2022-11-15T13:09:01;34.90;;;24.20;;
10465;SDS011;5280;42.600;23.556;2022-11-15T13:11:46;35.87;;;24.53;;
10465;SDS011;5280;42.600;23.556;2022-11-15T13:17:20;32.40;;;23.23;;
10465;SDS011;5280;42.600;23.556;2022-11-15T13:19:53;32.67;;;23.80;;
10465;SDS011;5280;42.600;23.556;2022-11-15T13:22:24;32.40;;;24.80;;
10465;SDS011;5280;42.600;23.556;2022-11-15T13:25:14;34.27;;;23.67;;
10465;SDS011;5280;42.600;23.556;2022-11-15T13:27:45;32.17;;;23.00;;
10465;SDS011;5280;42.600;23.556;2022-11-15T13:30:14;29.60;;;22.47;;
10465;SDS011;5280;42.600;23.556;2022-11-15T13:32:47;30.57;;;22.80;;
10465;SDS011;5280;42.600;23.556;2022-11-15T13:35:18;30.03;;;22.40;;
10465;SDS011;5280;42.600;23.556;2022-11-15T13:37:47;36.70;;;24.00;;
10465;SDS011;5280;42.600;23.556;2022-11-15T13:40:24;32.33;;;23.07;;
10465;SDS011;5280;42.600;23.556;2022-11-15T13:42:56;29.37;;;21.13;;
10465;SDS011;5280;42.600;23.556;2022-11-15T13:45:24;32.70;;;23.30;;
10465;SDS011;5280;42.600;23.556;2022-11-15T13:47:53;30.83;;;23.33;;
10465;SDS011;5280;42.600;23.556;2022-11-15T13:50:21;25.33;;;20.00;;
10465;SDS011;5280;42.600;23.556;2022-11-15T13:52:51;30.93;;;22.93;;
10465;SDS011;5280;42.600;23.556;2022-11-15T13:55:22;28.30;;;20.47;;
10465;SDS011;5280;42.600;23.556;2022-11-15T13:57:51;27.53;;;19.60;;
10465;SDS011;5280;42.600;23.556;2022-11-15T14:00:30;27.80;;;19.87;;
10465;SDS011;5280;42.600;23.556;2022-11-15T14:03:10;25.33;;;19.47;;
10465;SDS011;5280;42.600;23.556;2022-11-15T14:06:00;26.27;;;20.07;;
10465;SDS011;5280;42.600;23.556;2022-11-15T14:08:29;29.10;;;20.63;;
10465;SDS011;5280;42.600;23.556;2022-11-15T14:11:07;20.67;;;16.20;;
10465;SDS011;5280;42.600;23.556;2022-11-15T14:13:42;22.70;;;17.67;;
10465;SDS011;5280;42.600;23.556;2022-11-15T14:16:42;18.60;;;14.73;;
10465;SDS011;5280;42.600;23.556;2022-11-15T14:19:11;17.90;;;14.53;;
10465;SDS011;5280;42.600;23.556;2022-11-15T14:22:12;16.67;;;14.03;;
10465;SDS011;5280;42.600;23.556;2022-11-15T14:24:42;14.30;;;12.43;;
10465;SDS011;5280;42.600;23.556;2022-11-15T14:27:19;17.67;;;13.00;;
10465;SDS011;5280;42.600;23.556;2022-11-15T14:29:48;17.03;;;12.73;;
10465;SDS011;5280;42.600;23.556;2022-11-15T14:32:20;17.67;;;13.40;;
10465;SDS011;5280;42.600;23.556;2022-11-15T14:34:49;18.87;;;14.60;;
10465;SDS011;5280;42.600;23.556;2022-11-15T14:37:20;18.53;;;14.93;;
10465;SDS011;5280;42.600;23.556;2022-11-15T14:39:49;19.50;;;15.20;;
10465;SDS011;5280;42.600;23.556;2022-11-15T14:42:16;19.23;;;15.00;;
10465;SDS011;5280;42.600;23.556;2022-11-15T14:44:43;20.20;;;15.77;;
10465;SDS011;5280;42.600;23.556;2022-11-15T14:47:10;19.30;;;15.10;;
10465;SDS011;5280;42.600;23.556;2022-11-15T14:49:39;18.40;;;14.40;;
10465;SDS011;5280;42.600;23.556;2022-11-15T14:52:10;17.63;;;13.77;;
10465;SDS011;5280;42.600;23.556;2022-11-15T14:54:54;16.33;;;13.03;;
10465;SDS011;5280;42.600;23.556;2022-11-15T14:57:21;18.80;;;14.40;;
10465;SDS011;5280;42.600;23.556;2022-11-15T14:59:47;21.33;;;15.80;;
10465;SDS011;5280;42.600;23.556;2022-11-15T15:02:15;22.30;;;16.83;;
10465;SDS011;5280;42.600;23.556;2022-11-15T15:04:46;21.20;;;16.40;;
10465;SDS011;5280;42.600;23.556;2022-11-15T15:07:13;20.40;;;15.53;;
10465;SDS011;5280;42.600;23.556;2022-11-15T15:09:39;20.03;;;15.00;;
10465;SDS011;5280;42.600;23.556;2022-11-15T15:12:11;21.17;;;15.57;;
10465;SDS011;5280;42.600;23.556;2022-11-15T15:14:41;18.70;;;13.43;;
10465;SDS011;5280;42.600;23.556;2022-11-15T15:17:08;14.90;;;12.17;;